sensor_id;sensor_type;location;lat;lon;timestamp;temperature;humidity
11083;DHT22;5595;50.186;8.468;2023-08-12T00:00:21;18.50;99.90
11083;DHT22;5595;50.186;8.468;2023-08-12T00:02:48;18.50;99.90
11083;DHT22;5595;50.186;8.468;2023-08-12T00:05:15;18.50;99.90
11083;DHT22;5595;50.186;8.468;2023-08-12T00:07:42;18.50;99.90
11083;DHT22;5595;50.186;8.468;2023-08-12T00:10:10;18.50;99.90
11083;DHT22;5595;50.186;8.468;2023-08-12T00:12:37;18.60;99.90
11083;DHT22;5595;50.186;8.468;2023-08-12T00:15:08;18.60;99.90
11083;DHT22;5595;50.186;8.468;2023-08-12T00:17:38;18.60;99.90
11083;DHT22;5595;50.186;8.468;2023-08-12T00:20:07;18.70;99.90
11083;DHT22;5595;50.186;8.468;2023-08-12T00:22:36;18.70;99.90
11083;DHT22;5595;50.186;8.468;2023-08-12T00:25:04;18.70;99.90
11083;DHT22;5595;50.186;8.468;2023-08-12T00:27:30;18.80;99.90
11083;DHT22;5595;50.186;8.468;2023-08-12T00:29:57;18.80;99.90
11083;DHT22;5595;50.186;8.468;2023-08-12T00:32:28;18.80;99.90
11083;DHT22;5595;50.186;8.468;2023-08-12T00:34:55;18.90;99.90
11083;DHT22;5595;50.186;8.468;2023-08-12T00:37:23;18.80;99.90
11083;DHT22;5595;50.186;8.468;2023-08-12T00:39:49;18.80;99.90
11083;DHT22;5595;50.186;8.468;2023-08-12T00:42:16;18.90;99.90
11083;DHT22;5595;50.186;8.468;2023-08-12T00:44:43;18.90;99.90
11083;DHT22;5595;50.186;8.468;2023-08-12T00:47:10;18.90;99.90
11083;DHT22;5595;50.186;8.468;2023-08-12T00:49:40;18.90;99.90
11083;DHT22;5595;50.186;8.468;2023-08-12T00:52:09;18.90;99.90
11083;DHT22;5595;50.186;8.468;2023-08-12T00:54:36;19.00;99.90
11083;DHT22;5595;50.186;8.468;2023-08-12T00:57:03;19.00;99.90
11083;DHT22;5595;50.186;8.468;2023-08-12T00:59:30;19.00;99.90
11083;DHT22;5595;50.186;8.468;2023-08-12T01:01:59;19.00;99.90
11083;DHT22;5595;50.186;8.468;2023-08-12T01:04:26;19.00;99.90
11083;DHT22;5595;50.186;8.468;2023-08-12T01:06:57;19.00;99.90
11083;DHT22;5595;50.186;8.468;2023-08-12T01:09:23;19.00;99.90
11083;DHT22;5595;50.186;8.468;2023-08-12T01:11:57;19.00;99.90
11083;DHT22;5595;50.186;8.468;2023-08-12T01:14:28;19.00;99.90
11083;DHT22;5595;50.186;8.468;2023-08-12T01:16:59;19.10;99.90
11083;DHT22;5595;50.186;8.468;2023-08-12T01:19:32;19.10;99.90
11083;DHT22;5595;50.186;8.468;2023-08-12T01:22:02;19.10;99.90
11083;DHT22;5595;50.186;8.468;2023-08-12T01:24:35;19.10;99.90
11083;DHT22;5595;50.186;8.468;2023-08-12T01:27:02;19.20;99.90
11083;DHT22;5595;50.186;8.468;2023-08-12T01:29:30;19.10;99.90
11083;DHT22;5595;50.186;8.468;2023-08-12T01:32:07;19.10;99.90
11083;DHT22;5595;50.186;8.468;2023-08-12T01:34:40;19.20;99.90
11083;DHT22;5595;50.186;8.468;2023-08-12T01:37:11;19.20;99.90
11083;DHT22;5595;50.186;8.468;2023-08-12T01:39:41;19.20;99.90
11083;DHT22;5595;50.186;8.468;2023-08-12T01:42:09;19.20;99.90
11083;DHT22;5595;50.186;8.468;2023-08-12T01:44:37;19.20;99.90
11083;DHT22;5595;50.186;8.468;2023-08-12T01:47:04;19.20;99.90
11083;DHT22;5595;50.186;8.468;2023-08-12T01:49:31;19.20;99.90
11083;DHT22;5595;50.186;8.468;2023-08-12T01:51:57;19.30;99.90
11083;DHT22;5595;50.186;8.468;2023-08-12T01:54:24;19.20;99.90
11083;DHT22;5595;50.186;8.468;2023-08-12T01:56:55;19.20;99.90
11083;DHT22;5595;50.186;8.468;2023-08-12T01:59:22;19.20;99.90
11083;DHT22;5595;50.186;8.468;2023-08-12T02:01:52;19.30;99.90
11083;DHT22;5595;50.186;8.468;2023-08-12T02:04:18;19.40;99.90
11083;DHT22;5595;50.186;8.468;2023-08-12T02:06:45;19.30;99.90
11083;DHT22;5595;50.186;8.468;2023-08-12T02:09:12;19.40;99.90
11083;DHT22;5595;50.186;8.468;2023-08-12T02:11:39;19.40;99.90
11083;DHT22;5595;50.186;8.468;2023-08-12T02:14:07;19.40;99.90
11083;DHT22;5595;50.186;8.468;2023-08-12T02:16:34;19.40;99.90
11083;DHT22;5595;50.186;8.468;2023-08-12T02:19:00;19.30;99.90
11083;DHT22;5595;50.186;8.468;2023-08-12T02:21:27;19.40;99.90
11083;DHT22;5595;50.186;8.468;2023-08-12T02:23:54;19.40;99.90
11083;DHT22;5595;50.186;8.468;2023-08-12T02:26:25;19.40;99.90
11083;DHT22;5595;50.186;8.468;2023-08-12T02:28:52;19.40;99.90
11083;DHT22;5595;50.186;8.468;2023-08-12T02:31:20;19.40;99.90
11083;DHT22;5595;50.186;8.468;2023-08-12T02:33:47;19.50;99.90
11083;DHT22;5595;50.186;8.468;2023-08-12T02:36:15;19.60;99.90
11083;DHT22;5595;50.186;8.468;2023-08-12T02:38:41;19.80;99.90
11083;DHT22;5595;50.186;8.468;2023-08-12T02:41:08;19.90;99.90
11083;DHT22;5595;50.186;8.468;2023-08-12T02:43:35;20.10;99.90
11083;DHT22;5595;50.186;8.468;2023-08-12T02:46:02;20.10;99.90
11083;DHT22;5595;50.186;8.468;2023-08-12T02:48:30;20.20;99.90
11083;DHT22;5595;50.186;8.468;2023-08-12T02:50:57;20.20;99.90
11083;DHT22;5595;50.186;8.468;2023-08-12T02:53:24;20.20;99.90
11083;DHT22;5595;50.186;8.468;2023-08-12T02:55:50;20.20;99.90
11083;DHT22;5595;50.186;8.468;2023-08-12T02:58:17;20.10;99.90
11083;DHT22;5595;50.186;8.468;2023-08-12T03:00:48;20.00;99.90
11083;DHT22;5595;50.186;8.468;2023-08-12T03:03:15;19.80;99.90
11083;DHT22;5595;50.186;8.468;2023-08-12T03:05:46;19.60;99.90
11083;DHT22;5595;50.186;8.468;2023-08-12T03:08:12;19.50;99.90
11083;DHT22;5595;50.186;8.468;2023-08-12T03:10:40;19.20;99.90
11083;DHT22;5595;50.186;8.468;2023-08-12T03:13:07;19.00;99.90
11083;DHT22;5595;50.186;8.468;2023-08-12T03:15:34;18.80;99.90
11083;DHT22;5595;50.186;8.468;2023-08-12T03:18:00;18.70;99.90
11083;DHT22;5595;50.186;8.468;2023-08-12T03:20:27;18.60;99.90
11083;DHT22;5595;50.186;8.468;2023-08-12T03:22:55;18.50;99.90
11083;DHT22;5595;50.186;8.468;2023-08-12T03:25:22;18.40;99.90
11083;DHT22;5595;50.186;8.468;2023-08-12T03:27:49;18.40;99.90
11083;DHT22;5595;50.186;8.468;2023-08-12T03:30:16;18.50;99.90
11083;DHT22;5595;50.186;8.468;2023-08-12T03:32:44;18.50;99.90
11083;DHT22;5595;50.186;8.468;2023-08-12T03:35:10;18.50;99.90
11083;DHT22;5595;50.186;8.468;2023-08-12T03:37:37;18.50;99.90
11083;DHT22;5595;50.186;8.468;2023-08-12T03:40:07;18.50;99.90
11083;DHT22;5595;50.186;8.468;2023-08-12T03:42:34;18.60;99.90
11083;DHT22;5595;50.186;8.468;2023-08-12T03:45:01;18.60;99.90
11083;DHT22;5595;50.186;8.468;2023-08-12T03:47:28;18.60;99.90
11083;DHT22;5595;50.186;8.468;2023-08-12T03:49:54;18.60;99.90
11083;DHT22;5595;50.186;8.468;2023-08-12T03:52:21;18.70;99.90
11083;DHT22;5595;50.186;8.468;2023-08-12T03:54:48;18.70;99.90
11083;DHT22;5595;50.186;8.468;2023-08-12T03:57:16;18.70;99.90
11083;DHT22;5595;50.186;8.468;2023-08-12T03:59:43;18.70;99.90
11083;DHT22;5595;50.186;8.468;2023-08-12T04:02:10;18.70;99.90
11083;DHT22;5595;50.186;8.468;2023-08-12T04:04:36;18.80;99.90
11083;DHT22;5595;50.186;8.468;2023-08-12T04:07:03;18.80;99.90
11083;DHT22;5595;50.186;8.468;2023-08-12T04:09:30;18.80;99.90
11083;DHT22;5595;50.186;8.468;2023-08-12T04:11:57;18.80;99.90
11083;DHT22;5595;50.186;8.468;2023-08-12T04:14:25;18.80;99.90
11083;DHT22;5595;50.186;8.468;2023-08-12T04:16:52;18.90;99.90
11083;DHT22;5595;50.186;8.468;2023-08-12T04:19:18;18.80;99.90
11083;DHT22;5595;50.186;8.468;2023-08-12T04:21:45;18.90;99.90
11083;DHT22;5595;50.186;8.468;2023-08-12T04:24:12;18.90;99.90
11083;DHT22;5595;50.186;8.468;2023-08-12T04:26:39;18.90;99.90
11083;DHT22;5595;50.186;8.468;2023-08-12T04:29:06;18.90;99.90
11083;DHT22;5595;50.186;8.468;2023-08-12T04:31:34;18.90;99.90
11083;DHT22;5595;50.186;8.468;2023-08-12T04:34:01;18.90;99.90
11083;DHT22;5595;50.186;8.468;2023-08-12T04:36:28;18.90;99.90
11083;DHT22;5595;50.186;8.468;2023-08-12T04:38:55;19.00;99.90
11083;DHT22;5595;50.186;8.468;2023-08-12T04:41:21;19.00;99.90
11083;DHT22;5595;50.186;8.468;2023-08-12T04:43:49;19.00;99.90
11083;DHT22;5595;50.186;8.468;2023-08-12T04:46:16;19.00;99.90
11083;DHT22;5595;50.186;8.468;2023-08-12T04:48:44;19.00;99.90
11083;DHT22;5595;50.186;8.468;2023-08-12T04:51:12;19.00;99.90
11083;DHT22;5595;50.186;8.468;2023-08-12T04:53:40;19.00;99.90
11083;DHT22;5595;50.186;8.468;2023-08-12T04:56:06;19.00;99.90
11083;DHT22;5595;50.186;8.468;2023-08-12T04:58:33;19.00;99.90
11083;DHT22;5595;50.186;8.468;2023-08-12T05:01:00;19.00;99.90
11083;DHT22;5595;50.186;8.468;2023-08-12T05:03:28;19.10;99.90
11083;DHT22;5595;50.186;8.468;2023-08-12T05:05:55;19.10;99.90
11083;DHT22;5595;50.186;8.468;2023-08-12T05:08:22;19.10;99.90
11083;DHT22;5595;50.186;8.468;2023-08-12T05:10:49;19.20;99.90
11083;DHT22;5595;50.186;8.468;2023-08-12T05:13:16;19.20;99.90
11083;DHT22;5595;50.186;8.468;2023-08-12T05:15:45;19.20;99.90
11083;DHT22;5595;50.186;8.468;2023-08-12T05:18:12;19.30;99.90
11083;DHT22;5595;50.186;8.468;2023-08-12T05:20:39;19.40;99.90
11083;DHT22;5595;50.186;8.468;2023-08-12T05:23:07;19.40;99.90
11083;DHT22;5595;50.186;8.468;2023-08-12T05:25:34;19.50;99.90
11083;DHT22;5595;50.186;8.468;2023-08-12T05:28:01;19.60;99.90
11083;DHT22;5595;50.186;8.468;2023-08-12T05:30:27;19.60;99.90
11083;DHT22;5595;50.186;8.468;2023-08-12T05:32:54;19.70;99.90
11083;DHT22;5595;50.186;8.468;2023-08-12T05:35:21;19.80;99.90
11083;DHT22;5595;50.186;8.468;2023-08-12T05:37:51;19.90;99.90
11083;DHT22;5595;50.186;8.468;2023-08-12T05:40:19;19.90;99.90
11083;DHT22;5595;50.186;8.468;2023-08-12T05:42:46;19.90;99.90
11083;DHT22;5595;50.186;8.468;2023-08-12T05:45:15;19.90;99.90
11083;DHT22;5595;50.186;8.468;2023-08-12T05:47:42;19.90;99.90
11083;DHT22;5595;50.186;8.468;2023-08-12T05:50:11;19.90;99.90
11083;DHT22;5595;50.186;8.468;2023-08-12T05:52:40;19.80;99.90
11083;DHT22;5595;50.186;8.468;2023-08-12T05:55:07;19.80;99.90
11083;DHT22;5595;50.186;8.468;2023-08-12T05:57:35;19.80;99.90
11083;DHT22;5595;50.186;8.468;2023-08-12T06:00:02;19.90;99.90
11083;DHT22;5595;50.186;8.468;2023-08-12T06:02:29;20.00;99.90
11083;DHT22;5595;50.186;8.468;2023-08-12T06:04:56;20.10;99.90
11083;DHT22;5595;50.186;8.468;2023-08-12T06:07:22;20.30;99.90
11083;DHT22;5595;50.186;8.468;2023-08-12T06:09:49;20.50;99.90
11083;DHT22;5595;50.186;8.468;2023-08-12T06:12:16;20.50;99.90
11083;DHT22;5595;50.186;8.468;2023-08-12T06:14:45;20.60;99.90
11083;DHT22;5595;50.186;8.468;2023-08-12T06:17:12;20.60;99.90
11083;DHT22;5595;50.186;8.468;2023-08-12T06:19:38;20.50;99.90
11083;DHT22;5595;50.186;8.468;2023-08-12T06:22:05;20.50;99.90
11083;DHT22;5595;50.186;8.468;2023-08-12T06:24:32;20.60;99.90
11083;DHT22;5595;50.186;8.468;2023-08-12T06:26:59;20.60;99.90
11083;DHT22;5595;50.186;8.468;2023-08-12T06:29:26;20.80;99.90
11083;DHT22;5595;50.186;8.468;2023-08-12T06:31:54;20.90;99.90
11083;DHT22;5595;50.186;8.468;2023-08-12T06:34:21;21.10;99.90
11083;DHT22;5595;50.186;8.468;2023-08-12T06:36:47;21.20;99.90
11083;DHT22;5595;50.186;8.468;2023-08-12T06:39:14;21.20;99.90
11083;DHT22;5595;50.186;8.468;2023-08-12T06:41:41;21.20;99.90
11083;DHT22;5595;50.186;8.468;2023-08-12T06:44:08;21.20;99.90
11083;DHT22;5595;50.186;8.468;2023-08-12T06:46:34;21.10;99.90
11083;DHT22;5595;50.186;8.468;2023-08-12T06:49:03;21.00;99.90
11083;DHT22;5595;50.186;8.468;2023-08-12T06:51:29;20.90;99.90
11083;DHT22;5595;50.186;8.468;2023-08-12T06:53:56;21.00;99.90
11083;DHT22;5595;50.186;8.468;2023-08-12T06:56:23;21.20;99.90
11083;DHT22;5595;50.186;8.468;2023-08-12T06:58:50;21.30;99.90
11083;DHT22;5595;50.186;8.468;2023-08-12T07:01:17;21.40;99.90
11083;DHT22;5595;50.186;8.468;2023-08-12T07:03:43;21.60;99.90
11083;DHT22;5595;50.186;8.468;2023-08-12T07:06:11;21.70;99.90
11083;DHT22;5595;50.186;8.468;2023-08-12T07:08:38;21.90;99.90
11083;DHT22;5595;50.186;8.468;2023-08-12T07:11:05;22.10;99.90
11083;DHT22;5595;50.186;8.468;2023-08-12T07:13:32;22.30;99.90
11083;DHT22;5595;50.186;8.468;2023-08-12T07:15:59;22.30;99.90
11083;DHT22;5595;50.186;8.468;2023-08-12T07:18:26;22.30;99.90
11083;DHT22;5595;50.186;8.468;2023-08-12T07:20:52;22.20;99.90
11083;DHT22;5595;50.186;8.468;2023-08-12T07:23:22;22.30;99.90
11083;DHT22;5595;50.186;8.468;2023-08-12T07:26:02;22.40;99.90
11083;DHT22;5595;50.186;8.468;2023-08-12T07:28:39;22.50;99.90
11083;DHT22;5595;50.186;8.468;2023-08-12T07:31:19;22.50;99.90
11083;DHT22;5595;50.186;8.468;2023-08-12T07:33:46;22.40;99.90
11083;DHT22;5595;50.186;8.468;2023-08-12T07:36:15;22.50;99.90
11083;DHT22;5595;50.186;8.468;2023-08-12T07:38:47;22.60;99.90
11083;DHT22;5595;50.186;8.468;2023-08-12T07:41:13;22.80;99.90
11083;DHT22;5595;50.186;8.468;2023-08-12T07:43:40;23.00;99.90
11083;DHT22;5595;50.186;8.468;2023-08-12T07:46:07;23.20;99.90
11083;DHT22;5595;50.186;8.468;2023-08-12T07:48:34;23.20;99.90
11083;DHT22;5595;50.186;8.468;2023-08-12T07:51:00;23.20;99.90
11083;DHT22;5595;50.186;8.468;2023-08-12T07:53:27;23.20;99.90
11083;DHT22;5595;50.186;8.468;2023-08-12T07:55:56;23.30;99.90
11083;DHT22;5595;50.186;8.468;2023-08-12T07:58:22;23.40;99.90
11083;DHT22;5595;50.186;8.468;2023-08-12T08:00:52;23.40;99.90
11083;DHT22;5595;50.186;8.468;2023-08-12T08:03:19;23.30;99.90
11083;DHT22;5595;50.186;8.468;2023-08-12T08:05:45;23.20;99.90
11083;DHT22;5595;50.186;8.468;2023-08-12T08:08:12;23.10;99.90
11083;DHT22;5595;50.186;8.468;2023-08-12T08:10:39;23.10;99.90
11083;DHT22;5595;50.186;8.468;2023-08-12T08:13:07;23.00;99.90
11083;DHT22;5595;50.186;8.468;2023-08-12T08:15:34;22.90;99.90
11083;DHT22;5595;50.186;8.468;2023-08-12T08:18:01;22.90;99.90
11083;DHT22;5595;50.186;8.468;2023-08-12T08:20:29;22.90;99.90
11083;DHT22;5595;50.186;8.468;2023-08-12T08:22:56;23.00;99.90
11083;DHT22;5595;50.186;8.468;2023-08-12T08:25:23;23.20;99.90
11083;DHT22;5595;50.186;8.468;2023-08-12T08:27:50;23.40;99.90
11083;DHT22;5595;50.186;8.468;2023-08-12T08:30:18;23.70;99.90
11083;DHT22;5595;50.186;8.468;2023-08-12T08:32:44;23.80;99.90
11083;DHT22;5595;50.186;8.468;2023-08-12T08:35:12;23.80;99.90
11083;DHT22;5595;50.186;8.468;2023-08-12T08:37:40;23.70;99.90
11083;DHT22;5595;50.186;8.468;2023-08-12T08:40:08;23.70;99.90
11083;DHT22;5595;50.186;8.468;2023-08-12T08:42:37;23.80;99.90
11083;DHT22;5595;50.186;8.468;2023-08-12T08:45:08;23.80;99.90
11083;DHT22;5595;50.186;8.468;2023-08-12T08:47:41;24.00;99.90
11083;DHT22;5595;50.186;8.468;2023-08-12T08:50:09;24.00;99.90
11083;DHT22;5595;50.186;8.468;2023-08-12T08:52:37;24.00;99.90
11083;DHT22;5595;50.186;8.468;2023-08-12T08:55:05;24.00;99.90
11083;DHT22;5595;50.186;8.468;2023-08-12T08:57:31;24.30;99.90
11083;DHT22;5595;50.186;8.468;2023-08-12T08:59:59;24.40;99.90
11083;DHT22;5595;50.186;8.468;2023-08-12T09:02:26;24.20;99.90
11083;DHT22;5595;50.186;8.468;2023-08-12T09:04:54;24.10;99.90
11083;DHT22;5595;50.186;8.468;2023-08-12T09:07:24;24.00;99.90
11083;DHT22;5595;50.186;8.468;2023-08-12T09:09:52;24.10;99.90
11083;DHT22;5595;50.186;8.468;2023-08-12T09:12:21;24.30;99.90
11083;DHT22;5595;50.186;8.468;2023-08-12T09:14:49;24.50;99.90
11083;DHT22;5595;50.186;8.468;2023-08-12T09:17:16;24.50;99.90
11083;DHT22;5595;50.186;8.468;2023-08-12T09:19:43;24.50;99.90
11083;DHT22;5595;50.186;8.468;2023-08-12T09:22:12;24.30;99.90
11083;DHT22;5595;50.186;8.468;2023-08-12T09:24:39;24.20;99.90
11083;DHT22;5595;50.186;8.468;2023-08-12T09:27:05;24.10;99.90
11083;DHT22;5595;50.186;8.468;2023-08-12T09:29:34;24.00;99.90
11083;DHT22;5595;50.186;8.468;2023-08-12T09:32:10;24.00;99.90
11083;DHT22;5595;50.186;8.468;2023-08-12T09:34:37;23.90;99.90
11083;DHT22;5595;50.186;8.468;2023-08-12T09:37:07;23.90;99.90
11083;DHT22;5595;50.186;8.468;2023-08-12T09:39:35;24.10;99.90
11083;DHT22;5595;50.186;8.468;2023-08-12T09:42:02;24.40;99.90
11083;DHT22;5595;50.186;8.468;2023-08-12T09:44:29;24.60;99.90
11083;DHT22;5595;50.186;8.468;2023-08-12T09:46:56;24.80;99.90
11083;DHT22;5595;50.186;8.468;2023-08-12T09:49:24;25.00;99.90
11083;DHT22;5595;50.186;8.468;2023-08-12T09:51:51;25.10;99.90
11083;DHT22;5595;50.186;8.468;2023-08-12T09:54:18;25.10;99.90
11083;DHT22;5595;50.186;8.468;2023-08-12T09:56:49;25.20;99.90
11083;DHT22;5595;50.186;8.468;2023-08-12T09:59:19;25.10;99.90
11083;DHT22;5595;50.186;8.468;2023-08-12T10:01:48;25.00;99.90
11083;DHT22;5595;50.186;8.468;2023-08-12T10:04:17;24.80;99.90
11083;DHT22;5595;50.186;8.468;2023-08-12T10:06:44;24.80;99.90
11083;DHT22;5595;50.186;8.468;2023-08-12T10:09:15;24.70;99.90
11083;DHT22;5595;50.186;8.468;2023-08-12T10:11:44;24.70;99.90
11083;DHT22;5595;50.186;8.468;2023-08-12T10:14:13;24.80;99.90
11083;DHT22;5595;50.186;8.468;2023-08-12T10:16:42;24.80;99.90
11083;DHT22;5595;50.186;8.468;2023-08-12T10:19:12;24.60;99.90
11083;DHT22;5595;50.186;8.468;2023-08-12T10:21:39;24.40;99.90
11083;DHT22;5595;50.186;8.468;2023-08-12T10:24:08;24.10;99.90
11083;DHT22;5595;50.186;8.468;2023-08-12T10:26:38;23.90;99.90
11083;DHT22;5595;50.186;8.468;2023-08-12T10:29:05;23.70;99.90
11083;DHT22;5595;50.186;8.468;2023-08-12T10:31:34;23.40;99.90
11083;DHT22;5595;50.186;8.468;2023-08-12T10:34:01;23.20;99.90
11083;DHT22;5595;50.186;8.468;2023-08-12T10:36:29;22.90;99.90
11083;DHT22;5595;50.186;8.468;2023-08-12T10:39:00;22.70;99.90
11083;DHT22;5595;50.186;8.468;2023-08-12T10:41:27;22.60;99.90
11083;DHT22;5595;50.186;8.468;2023-08-12T10:43:59;22.40;99.90
11083;DHT22;5595;50.186;8.468;2023-08-12T10:46:31;22.30;99.90
11083;DHT22;5595;50.186;8.468;2023-08-12T10:49:09;22.20;99.90
11083;DHT22;5595;50.186;8.468;2023-08-12T10:51:46;22.10;99.90
11083;DHT22;5595;50.186;8.468;2023-08-12T10:54:14;21.90;99.90
11083;DHT22;5595;50.186;8.468;2023-08-12T10:57:07;21.90;99.90
11083;DHT22;5595;50.186;8.468;2023-08-12T10:59:50;21.80;99.90
11083;DHT22;5595;50.186;8.468;2023-08-12T11:02:18;21.80;99.90
11083;DHT22;5595;50.186;8.468;2023-08-12T11:04:48;21.70;99.90
11083;DHT22;5595;50.186;8.468;2023-08-12T11:07:15;21.70;99.90
11083;DHT22;5595;50.186;8.468;2023-08-12T11:09:43;21.60;99.90
11083;DHT22;5595;50.186;8.468;2023-08-12T11:12:09;21.60;99.90
11083;DHT22;5595;50.186;8.468;2023-08-12T11:14:47;21.60;99.90
11083;DHT22;5595;50.186;8.468;2023-08-12T11:17:15;21.70;99.90
11083;DHT22;5595;50.186;8.468;2023-08-12T11:19:42;21.80;99.90
11083;DHT22;5595;50.186;8.468;2023-08-12T11:22:11;21.90;99.90
11083;DHT22;5595;50.186;8.468;2023-08-12T11:24:40;22.00;99.90
11083;DHT22;5595;50.186;8.468;2023-08-12T11:27:09;22.40;99.90
11083;DHT22;5595;50.186;8.468;2023-08-12T11:29:37;22.60;99.90
11083;DHT22;5595;50.186;8.468;2023-08-12T11:32:05;22.90;99.90
11083;DHT22;5595;50.186;8.468;2023-08-12T11:34:32;23.30;99.90
11083;DHT22;5595;50.186;8.468;2023-08-12T11:36:59;23.40;99.90
11083;DHT22;5595;50.186;8.468;2023-08-12T11:39:28;23.50;99.90
11083;DHT22;5595;50.186;8.468;2023-08-12T11:41:55;23.50;99.90
11083;DHT22;5595;50.186;8.468;2023-08-12T11:44:23;23.50;99.90
11083;DHT22;5595;50.186;8.468;2023-08-12T11:46:50;23.60;99.90
11083;DHT22;5595;50.186;8.468;2023-08-12T11:49:17;23.60;99.90
11083;DHT22;5595;50.186;8.468;2023-08-12T11:51:45;23.50;99.90
11083;DHT22;5595;50.186;8.468;2023-08-12T11:54:14;23.60;99.90
11083;DHT22;5595;50.186;8.468;2023-08-12T11:56:42;23.60;99.90
11083;DHT22;5595;50.186;8.468;2023-08-12T11:59:09;23.70;99.90
11083;DHT22;5595;50.186;8.468;2023-08-12T12:01:36;23.80;99.90
11083;DHT22;5595;50.186;8.468;2023-08-12T12:04:04;23.90;99.90
11083;DHT22;5595;50.186;8.468;2023-08-12T12:06:31;23.90;99.90
11083;DHT22;5595;50.186;8.468;2023-08-12T12:09:02;24.00;99.90
11083;DHT22;5595;50.186;8.468;2023-08-12T12:11:30;24.00;99.90
11083;DHT22;5595;50.186;8.468;2023-08-12T12:14:01;23.90;99.90
11083;DHT22;5595;50.186;8.468;2023-08-12T12:16:37;23.90;99.90
11083;DHT22;5595;50.186;8.468;2023-08-12T12:19:04;23.80;99.90
11083;DHT22;5595;50.186;8.468;2023-08-12T12:21:39;23.70;99.90
11083;DHT22;5595;50.186;8.468;2023-08-12T12:24:07;23.70;99.90
11083;DHT22;5595;50.186;8.468;2023-08-12T12:26:34;23.80;99.90
11083;DHT22;5595;50.186;8.468;2023-08-12T12:29:03;23.90;99.90
11083;DHT22;5595;50.186;8.468;2023-08-12T12:31:31;24.20;99.90
11083;DHT22;5595;50.186;8.468;2023-08-12T12:33:57;24.50;99.90
11083;DHT22;5595;50.186;8.468;2023-08-12T12:36:24;24.90;99.90
11083;DHT22;5595;50.186;8.468;2023-08-12T12:38:51;25.20;99.90
11083;DHT22;5595;50.186;8.468;2023-08-12T12:41:18;25.60;99.90
11083;DHT22;5595;50.186;8.468;2023-08-12T12:43:45;26.00;99.90
11083;DHT22;5595;50.186;8.468;2023-08-12T12:46:14;26.40;99.90
11083;DHT22;5595;50.186;8.468;2023-08-12T12:48:41;26.70;99.90
11083;DHT22;5595;50.186;8.468;2023-08-12T12:51:08;27.00;99.90
11083;DHT22;5595;50.186;8.468;2023-08-12T12:53:35;27.00;99.90
11083;DHT22;5595;50.186;8.468;2023-08-12T12:56:02;26.80;99.90
11083;DHT22;5595;50.186;8.468;2023-08-12T12:58:30;26.60;99.90
11083;DHT22;5595;50.186;8.468;2023-08-12T13:00:58;26.50;99.90
11083;DHT22;5595;50.186;8.468;2023-08-12T13:03:27;26.40;99.90
11083;DHT22;5595;50.186;8.468;2023-08-12T13:05:54;26.20;99.90
11083;DHT22;5595;50.186;8.468;2023-08-12T13:08:21;26.00;99.90
11083;DHT22;5595;50.186;8.468;2023-08-12T13:10:47;26.00;99.90
11083;DHT22;5595;50.186;8.468;2023-08-12T13:13:15;25.80;99.90
11083;DHT22;5595;50.186;8.468;2023-08-12T13:15:42;25.80;99.90
11083;DHT22;5595;50.186;8.468;2023-08-12T13:18:09;25.80;99.90
11083;DHT22;5595;50.186;8.468;2023-08-12T13:20:37;25.80;99.90
11083;DHT22;5595;50.186;8.468;2023-08-12T13:23:04;26.00;99.90
11083;DHT22;5595;50.186;8.468;2023-08-12T13:25:33;26.10;99.90
11083;DHT22;5595;50.186;8.468;2023-08-12T13:28:00;26.20;99.90
11083;DHT22;5595;50.186;8.468;2023-08-12T13:30:27;26.30;99.90
11083;DHT22;5595;50.186;8.468;2023-08-12T13:32:54;26.30;99.90
11083;DHT22;5595;50.186;8.468;2023-08-12T13:35:20;26.40;99.90
11083;DHT22;5595;50.186;8.468;2023-08-12T13:37:49;26.40;99.90
11083;DHT22;5595;50.186;8.468;2023-08-12T13:40:16;26.40;99.90
11083;DHT22;5595;50.186;8.468;2023-08-12T13:42:43;26.20;99.90
11083;DHT22;5595;50.186;8.468;2023-08-12T13:45:11;26.00;99.90
11083;DHT22;5595;50.186;8.468;2023-08-12T13:47:38;26.20;99.90
11083;DHT22;5595;50.186;8.468;2023-08-12T13:50:06;26.20;99.90
11083;DHT22;5595;50.186;8.468;2023-08-12T13:52:33;26.20;99.90
11083;DHT22;5595;50.186;8.468;2023-08-12T13:55:01;26.20;99.90
11083;DHT22;5595;50.186;8.468;2023-08-12T13:57:29;26.10;99.90
11083;DHT22;5595;50.186;8.468;2023-08-12T13:59:56;26.00;99.90
11083;DHT22;5595;50.186;8.468;2023-08-12T14:02:23;26.20;99.90
11083;DHT22;5595;50.186;8.468;2023-08-12T14:04:50;26.30;99.90
11083;DHT22;5595;50.186;8.468;2023-08-12T14:07:17;26.20;99.90
11083;DHT22;5595;50.186;8.468;2023-08-12T14:09:45;26.20;99.90
11083;DHT22;5595;50.186;8.468;2023-08-12T14:12:14;26.10;99.90
11083;DHT22;5595;50.186;8.468;2023-08-12T14:14:41;26.20;99.90
11083;DHT22;5595;50.186;8.468;2023-08-12T14:17:07;26.30;99.90
11083;DHT22;5595;50.186;8.468;2023-08-12T14:19:39;26.30;99.90
11083;DHT22;5595;50.186;8.468;2023-08-12T14:22:07;26.10;99.90
11083;DHT22;5595;50.186;8.468;2023-08-12T14:24:33;26.00;99.90
11083;DHT22;5595;50.186;8.468;2023-08-12T14:27:00;26.00;99.90
11083;DHT22;5595;50.186;8.468;2023-08-12T14:29:29;26.30;99.90
11083;DHT22;5595;50.186;8.468;2023-08-12T14:31:56;26.40;99.90
11083;DHT22;5595;50.186;8.468;2023-08-12T14:34:23;26.80;99.90
11083;DHT22;5595;50.186;8.468;2023-08-12T14:36:50;26.90;99.90
11083;DHT22;5595;50.186;8.468;2023-08-12T14:39:17;27.10;99.90
11083;DHT22;5595;50.186;8.468;2023-08-12T14:41:43;27.20;99.90
11083;DHT22;5595;50.186;8.468;2023-08-12T14:44:10;27.30;99.90
11083;DHT22;5595;50.186;8.468;2023-08-12T14:46:38;27.40;99.90
11083;DHT22;5595;50.186;8.468;2023-08-12T14:49:05;27.30;99.90
11083;DHT22;5595;50.186;8.468;2023-08-12T14:51:32;27.10;99.90
11083;DHT22;5595;50.186;8.468;2023-08-12T14:53:59;26.80;99.90
11083;DHT22;5595;50.186;8.468;2023-08-12T14:56:26;26.60;99.90
11083;DHT22;5595;50.186;8.468;2023-08-12T14:58:52;26.40;99.90
11083;DHT22;5595;50.186;8.468;2023-08-12T15:01:19;26.40;99.90
11083;DHT22;5595;50.186;8.468;2023-08-12T15:03:48;26.20;99.90
11083;DHT22;5595;50.186;8.468;2023-08-12T15:06:15;26.00;99.90
11083;DHT22;5595;50.186;8.468;2023-08-12T15:08:42;25.80;99.90
11083;DHT22;5595;50.186;8.468;2023-08-12T15:11:09;25.90;99.90
11083;DHT22;5595;50.186;8.468;2023-08-12T15:13:35;25.90;99.90
11083;DHT22;5595;50.186;8.468;2023-08-12T15:16:02;25.70;99.90
11083;DHT22;5595;50.186;8.468;2023-08-12T15:18:29;25.50;99.90
11083;DHT22;5595;50.186;8.468;2023-08-12T15:20:57;25.40;99.90
11083;DHT22;5595;50.186;8.468;2023-08-12T15:23:24;25.30;99.90
11083;DHT22;5595;50.186;8.468;2023-08-12T15:25:51;25.30;99.90
11083;DHT22;5595;50.186;8.468;2023-08-12T15:28:18;25.50;99.90
11083;DHT22;5595;50.186;8.468;2023-08-12T15:30:47;25.50;99.90
11083;DHT22;5595;50.186;8.468;2023-08-12T15:33:15;25.50;99.90
11083;DHT22;5595;50.186;8.468;2023-08-12T15:35:42;25.60;99.90
11083;DHT22;5595;50.186;8.468;2023-08-12T15:38:10;25.50;99.90
11083;DHT22;5595;50.186;8.468;2023-08-12T15:40:37;25.40;99.90
11083;DHT22;5595;50.186;8.468;2023-08-12T15:43:04;25.30;99.90
11083;DHT22;5595;50.186;8.468;2023-08-12T15:45:31;25.00;99.90
11083;DHT22;5595;50.186;8.468;2023-08-12T15:47:58;24.90;99.90